createdAt,value
2018-11-06T00:00:02.906Z,80.93
2018-11-06T00:02:31.451Z,81.01
2018-11-06T00:05:05.118Z,81.35
2018-11-06T00:10:26.523Z,81.15
2018-11-06T00:12:55.042Z,81.68
2018-11-06T00:15:23.538Z,81.51
2018-11-06T00:17:52.047Z,81.96
2018-11-06T00:20:20.545Z,81.22
2018-11-06T00:22:49.082Z,81.52
2018-11-06T00:25:18.180Z,81.47
2018-11-06T00:27:46.700Z,81.03
2018-11-06T00:30:15.641Z,81.13
2018-11-06T00:32:44.418Z,81.14
2018-11-06T00:35:14.349Z,81.04
2018-11-06T00:37:43.625Z,81.43
2018-11-06T00:40:12.226Z,81.51
2018-11-06T00:42:40.747Z,81.14
2018-11-06T00:45:11.854Z,81.46
2018-11-06T00:47:40.955Z,80.86
2018-11-06T00:50:10.715Z,81.24
2018-11-06T00:52:40.185Z,81.02
2018-11-06T00:55:09.479Z,80.73
2018-11-06T00:57:39.414Z,80.70
2018-11-06T01:00:10.667Z,80.88
2018-11-06T01:02:39.187Z,80.66
2018-11-06T01:05:08.854Z,81.08
2018-11-06T01:07:37.353Z,80.84
2018-11-06T01:10:06.823Z,80.81
2018-11-06T01:12:36.288Z,80.76
2018-11-06T01:15:05.283Z,81.38
2018-11-06T01:17:33.846Z,81.42
2018-11-06T01:20:02.556Z,81.47
2018-11-06T01:22:31.726Z,81.11
2018-11-06T01:25:01.399Z,81.69
2018-11-06T01:27:29.949Z,81.49
2018-11-06T01:29:58.473Z,81.11
2018-11-06T01:32:26.990Z,81.59
2018-11-06T01:34:55.854Z,81.00
2018-11-06T01:37:24.384Z,81.56
2018-11-06T01:39:52.890Z,81.34
2018-11-06T01:42:21.758Z,81.80
2018-11-06T01:44:50.276Z,82.16
2018-11-06T01:47:18.779Z,81.93
2018-11-06T01:49:47.281Z,82.26
2018-11-06T01:52:15.781Z,81.79
2018-11-06T01:54:44.311Z,82.31
2018-11-06T01:57:12.830Z,81.98
2018-11-06T01:59:41.334Z,81.68
2018-11-06T02:02:09.849Z,81.64
2018-11-06T02:04:38.362Z,81.85
2018-11-06T02:07:06.983Z,81.65
2018-11-06T02:09:35.470Z,81.60
2018-11-06T02:12:04.062Z,81.23
2018-11-06T02:14:32.571Z,81.38
2018-11-06T02:17:01.089Z,81.44
2018-11-06T02:19:29.589Z,80.95
2018-11-06T02:21:58.116Z,81.30
2018-11-06T02:24:26.671Z,81.02
2018-11-06T02:26:55.170Z,81.19
2018-11-06T02:29:23.662Z,81.44
2018-11-06T02:31:52.209Z,81.60
2018-11-06T02:34:20.705Z,81.95
2018-11-06T02:36:49.213Z,81.82
2018-11-06T02:39:17.715Z,81.27
2018-11-06T02:41:46.228Z,81.48
2018-11-06T02:44:14.714Z,81.19
2018-11-06T02:46:43.198Z,81.11
2018-11-06T02:49:11.696Z,81.54
2018-11-06T02:51:40.205Z,81.69
2018-11-06T02:54:08.722Z,81.06
2018-11-06T02:56:37.250Z,81.72
2018-11-06T02:59:05.834Z,81.22
2018-11-06T03:01:34.784Z,81.40
2018-11-06T03:04:06.353Z,81.42
2018-11-06T03:06:35.162Z,81.59
2018-11-06T03:09:05.767Z,81.69
2018-11-06T03:11:34.283Z,81.98
2018-11-06T03:14:03.819Z,81.65
2018-11-06T03:16:32.325Z,81.62
2018-11-06T03:19:01.921Z,81.51
2018-11-06T03:21:30.444Z,81.58
2018-11-06T03:23:59.060Z,81.63
2018-11-06T03:26:27.582Z,81.58
2018-11-06T03:28:56.115Z,81.95
2018-11-06T03:31:24.598Z,81.74
2018-11-06T03:33:53.131Z,81.72
2018-11-06T03:36:21.609Z,81.70
2018-11-06T03:38:50.115Z,82.38
2018-11-06T03:41:18.611Z,82.06
2018-11-06T03:43:47.136Z,82.18
2018-11-06T03:46:15.638Z,82.52
2018-11-06T03:48:44.261Z,81.97
2018-11-06T03:51:12.766Z,81.94
2018-11-06T03:53:41.264Z,82.15
2018-11-06T03:56:10.114Z,82.36
2018-11-06T03:58:38.978Z,82.39
2018-11-06T04:01:08.062Z,82.69
2018-11-06T04:03:36.559Z,81.96
2018-11-06T04:06:05.214Z,81.99
2018-11-06T04:08:33.735Z,82.40
2018-11-06T04:11:02.299Z,82.40
2018-11-06T04:13:30.849Z,82.88
2018-11-06T04:15:59.368Z,82.89
2018-11-06T04:18:27.878Z,82.76
2018-11-06T04:20:56.390Z,82.40
2018-11-06T04:23:25.114Z,82.59
2018-11-06T04:25:53.610Z,82.57
2018-11-06T04:28:22.115Z,82.75
2018-11-06T04:30:50.615Z,82.72
2018-11-06T04:33:19.098Z,82.48
2018-11-06T04:35:47.622Z,82.30
2018-11-06T04:38:16.103Z,82.11
2018-11-06T04:40:44.622Z,82.75
2018-11-06T04:43:13.125Z,82.28
2018-11-06T04:45:41.630Z,82.52
2018-11-06T04:48:10.127Z,83.28
2018-11-06T04:50:38.646Z,83.09
2018-11-06T04:53:07.142Z,82.76
2018-11-06T04:55:35.656Z,83.46
2018-11-06T04:58:04.258Z,83.11
2018-11-06T05:00:32.767Z,83.05
2018-11-06T05:03:01.697Z,83.31
2018-11-06T05:05:30.213Z,82.86
2018-11-06T05:07:58.714Z,83.46
2018-11-06T05:10:27.211Z,83.09
2018-11-06T05:12:55.847Z,82.58
2018-11-06T05:15:24.370Z,83.14
2018-11-06T05:17:52.854Z,83.43
2018-11-06T05:20:21.338Z,82.71
2018-11-06T05:22:49.856Z,83.02
2018-11-06T05:25:18.947Z,83.43
2018-11-06T05:27:47.447Z,83.45
2018-11-06T05:30:16.003Z,83.56
2018-11-06T05:32:44.984Z,83.24
2018-11-06T05:35:13.548Z,83.04
2018-11-06T05:37:42.173Z,82.66
2018-11-06T05:40:21.898Z,82.51
2018-11-06T05:45:42.761Z,82.54
2018-11-06T05:48:11.150Z,82.98
2018-11-06T05:50:39.667Z,83.34
2018-11-06T05:53:08.226Z,82.71
2018-11-06T05:55:36.746Z,82.96
2018-11-06T05:58:05.516Z,83.05
2018-11-06T06:00:34.073Z,83.12
2018-11-06T06:03:02.586Z,82.70
2018-11-06T06:05:31.113Z,82.46
2018-11-06T06:07:59.597Z,83.65
2018-11-06T06:10:28.469Z,83.34
2018-11-06T06:12:56.976Z,82.95
2018-11-06T06:15:25.483Z,82.54
2018-11-06T06:17:54.234Z,82.63
2018-11-06T06:20:22.727Z,82.64
2018-11-06T06:25:43.918Z,83.02
2018-11-06T06:28:12.429Z,83.04
2018-11-06T06:30:40.914Z,82.89
2018-11-06T06:33:09.443Z,83.31
2018-11-06T06:35:37.958Z,83.36
2018-11-06T06:38:06.693Z,83.84
2018-11-06T06:40:35.214Z,83.07
2018-11-06T06:43:03.806Z,82.68
2018-11-06T06:45:32.406Z,83.28
2018-11-06T06:48:00.965Z,83.46
2018-11-06T06:50:29.526Z,83.11
2018-11-06T06:52:58.154Z,83.26
2018-11-06T06:55:26.665Z,83.54
2018-11-06T06:57:55.163Z,83.34
2018-11-06T07:00:23.719Z,83.88
2018-11-06T07:02:52.234Z,83.75
2018-11-06T07:05:22.206Z,84.08
2018-11-06T07:07:50.722Z,84.16
2018-11-06T07:10:20.446Z,84.00
2018-11-06T07:12:49.564Z,83.92
2018-11-06T07:15:19.347Z,84.31
2018-11-06T07:17:48.823Z,83.58
2018-11-06T07:23:09.806Z,83.87
2018-11-06T07:25:38.308Z,84.79
2018-11-06T07:28:06.807Z,85.60
2018-11-06T07:30:35.487Z,86.28
2018-11-06T07:33:04.182Z,86.11
2018-11-06T07:35:32.834Z,85.73
2018-11-06T07:38:01.203Z,85.51
2018-11-06T07:40:29.746Z,85.87
2018-11-06T07:42:58.229Z,85.82
2018-11-06T07:45:26.758Z,86.00
2018-11-06T07:47:55.306Z,86.56
2018-11-06T07:50:23.874Z,87.23
2018-11-06T07:52:52.562Z,85.82
2018-11-06T07:55:21.250Z,85.88
2018-11-06T07:57:49.770Z,86.66
2018-11-06T08:00:22.047Z,86.93
2018-11-06T08:02:51.028Z,87.40
2018-11-06T08:05:19.738Z,87.34
2018-11-06T08:07:49.072Z,86.40
2018-11-06T08:10:17.561Z,86.66
2018-11-06T08:12:48.428Z,86.15
2018-11-06T08:15:17.666Z,85.46
2018-11-06T08:17:46.585Z,86.71
2018-11-06T08:20:15.382Z,86.74
2018-11-06T08:22:43.920Z,85.69
2018-11-06T08:25:13.780Z,86.78
2018-11-06T08:27:43.087Z,85.90
2018-11-06T08:30:12.244Z,87.43
2018-11-06T08:32:41.060Z,87.14
2018-11-06T08:35:12.130Z,86.20
2018-11-06T08:37:41.019Z,82.29
2018-11-06T08:40:10.433Z,84.96
2018-11-06T08:42:38.933Z,82.77
2018-11-06T08:45:09.167Z,80.05
2018-11-06T08:47:37.699Z,79.03
2018-11-06T08:50:07.451Z,76.24
2018-11-06T08:52:35.967Z,76.01
2018-11-06T08:55:05.543Z,72.75
2018-11-06T08:57:34.078Z,74.05
2018-11-06T09:00:02.723Z,72.14
2018-11-06T09:02:31.237Z,71.00
2018-11-06T09:04:59.734Z,71.37
2018-11-06T09:10:21.423Z,72.05
2018-11-06T09:13:01.016Z,69.62
2018-11-06T09:15:29.649Z,69.22
2018-11-06T09:18:04.701Z,70.40
2018-11-06T09:20:33.207Z,67.04
2018-11-06T09:23:01.951Z,65.69
2018-11-06T09:25:30.478Z,64.64
2018-11-06T09:27:58.993Z,64.72
2018-11-06T09:30:27.487Z,62.10
2018-11-06T09:32:55.991Z,60.28
2018-11-06T09:35:24.483Z,59.93
2018-11-06T09:37:52.993Z,58.83
2018-11-06T09:40:21.516Z,61.70
2018-11-06T09:42:50.059Z,59.39
2018-11-06T09:45:18.719Z,60.89
2018-11-06T09:47:47.215Z,58.77
2018-11-06T09:50:17.090Z,58.13
2018-11-06T09:52:46.375Z,58.68
2018-11-06T09:55:15.580Z,57.32
2018-11-06T09:57:44.454Z,55.03
2018-11-06T10:00:15.255Z,56.56
2018-11-06T10:02:43.779Z,53.67
2018-11-06T10:05:13.110Z,56.78
2018-11-06T10:07:41.678Z,53.24
2018-11-06T10:10:12.360Z,52.54
2018-11-06T10:12:41.390Z,52.98
2018-11-06T10:15:12.230Z,49.40
2018-11-06T10:17:41.906Z,51.00
2018-11-06T10:20:11.478Z,52.33
2018-11-06T10:22:40.066Z,50.78
2018-11-06T10:25:09.082Z,52.46
2018-11-06T10:27:38.380Z,51.91
2018-11-06T10:30:09.130Z,50.57
2018-11-06T10:32:37.710Z,50.31
2018-11-06T10:35:06.657Z,51.46
2018-11-06T10:37:35.179Z,49.30
2018-11-06T10:40:04.096Z,49.04
2018-11-06T10:42:32.599Z,49.65
2018-11-06T10:45:01.120Z,48.83
2018-11-06T10:47:29.655Z,46.71
2018-11-06T10:49:58.178Z,48.20
2018-11-06T10:52:26.719Z,48.64
2018-11-06T10:54:55.262Z,47.74
2018-11-06T10:57:23.807Z,46.02
2018-11-06T10:59:52.327Z,47.13
2018-11-06T11:02:27.860Z,47.29
2018-11-06T11:04:56.607Z,49.21
2018-11-06T11:07:25.212Z,47.62
2018-11-06T11:09:53.786Z,47.90
2018-11-06T11:12:22.335Z,47.77
2018-11-06T11:14:50.883Z,46.39
2018-11-06T11:17:19.633Z,48.06
2018-11-06T11:19:48.244Z,48.00
2018-11-06T11:22:16.762Z,48.21
2018-11-06T11:24:45.303Z,47.83
2018-11-06T11:27:13.827Z,45.24
2018-11-06T11:29:42.327Z,45.50
2018-11-06T11:32:10.875Z,45.45
2018-11-06T11:34:39.400Z,46.22
2018-11-06T11:37:08.480Z,47.21
2018-11-06T11:39:54.991Z,47.03
2018-11-06T11:42:23.515Z,47.70
2018-11-06T11:44:52.038Z,45.40
2018-11-06T11:47:20.630Z,46.89
2018-11-06T11:49:49.155Z,49.06
2018-11-06T11:52:17.784Z,49.45
2018-11-06T11:54:46.320Z,48.82
2018-11-06T11:57:14.834Z,49.68
2018-11-06T11:59:43.334Z,50.73
2018-11-06T12:02:11.858Z,50.71
2018-11-06T12:04:40.342Z,49.30
2018-11-06T12:07:10.571Z,50.45
2018-11-06T12:09:39.102Z,49.17
2018-11-06T12:12:07.634Z,51.60
2018-11-06T12:14:36.146Z,49.99
2018-11-06T12:17:04.771Z,49.87
2018-11-06T12:22:26.194Z,49.67
2018-11-06T12:24:55.112Z,49.73
2018-11-06T12:27:23.542Z,50.53
2018-11-06T12:29:52.072Z,50.62
2018-11-06T12:32:20.608Z,50.63
2018-11-06T12:34:49.144Z,50.13
2018-11-06T12:37:17.636Z,50.04
2018-11-06T12:39:46.187Z,48.50
2018-11-06T12:42:14.696Z,50.14
2018-11-06T12:44:43.555Z,49.88
2018-11-06T12:47:12.085Z,49.97
2018-11-06T12:49:40.591Z,49.61
2018-11-06T12:52:09.065Z,49.93
2018-11-06T12:54:37.597Z,50.14
2018-11-06T12:57:06.438Z,49.71
2018-11-06T12:59:34.959Z,50.03
2018-11-06T13:02:03.667Z,49.60
2018-11-06T13:04:32.180Z,48.94
2018-11-06T13:07:00.707Z,48.76
2018-11-06T13:09:29.222Z,47.52
2018-11-06T13:11:58.118Z,46.70
2018-11-06T13:14:26.607Z,47.13
2018-11-06T13:16:55.125Z,45.57
2018-11-06T13:19:23.633Z,45.41
2018-11-06T13:21:52.133Z,45.23
2018-11-06T13:24:20.655Z,44.06
2018-11-06T13:26:49.154Z,43.74
2018-11-06T13:29:17.656Z,44.58
2018-11-06T13:31:46.207Z,42.62
2018-11-06T13:34:14.689Z,44.28
2018-11-06T13:36:43.294Z,43.66
2018-11-06T13:39:12.783Z,43.71
2018-11-06T13:41:41.899Z,43.60
2018-11-06T13:44:10.669Z,44.10
2018-11-06T13:46:38.986Z,42.81
2018-11-06T13:49:07.534Z,44.55
2018-11-06T13:51:36.117Z,43.76
2018-11-06T13:54:06.871Z,43.60
2018-11-06T13:56:35.392Z,43.92
2018-11-06T13:59:06.380Z,44.58
2018-11-06T14:01:34.903Z,44.78
2018-11-06T14:04:04.633Z,43.99
2018-11-06T14:06:33.146Z,44.42
2018-11-06T14:09:04.795Z,44.60
2018-11-06T14:11:33.314Z,44.45
2018-11-06T14:14:02.941Z,44.58
2018-11-06T14:16:31.677Z,45.00
2018-11-06T14:19:00.539Z,43.11
2018-11-06T14:21:29.047Z,44.69
2018-11-06T14:23:57.550Z,44.11
2018-11-06T14:26:26.059Z,44.76
2018-11-06T14:28:54.571Z,43.84
2018-11-06T14:31:23.094Z,44.51
2018-11-06T14:33:51.592Z,44.71
2018-11-06T14:36:20.091Z,45.33
2018-11-06T14:38:48.585Z,44.54
2018-11-06T14:41:17.106Z,44.62
2018-11-06T14:43:45.606Z,45.52
2018-11-06T14:46:14.103Z,45.50
2018-11-06T14:48:42.816Z,46.62
2018-11-06T14:51:11.363Z,45.33
2018-11-06T14:53:39.888Z,46.53
2018-11-06T14:56:08.465Z,46.84
2018-11-06T14:58:37.055Z,47.23
2018-11-06T15:01:05.602Z,48.17
2018-11-06T15:06:27.272Z,48.50
2018-11-06T15:08:55.808Z,48.89
2018-11-06T15:11:24.353Z,49.09
2018-11-06T15:13:52.865Z,49.35
2018-11-06T15:16:21.398Z,49.31
2018-11-06T15:18:49.939Z,48.65
2018-11-06T15:21:18.447Z,50.88
2018-11-06T15:23:46.986Z,50.87
2018-11-06T15:26:15.532Z,51.14
2018-11-06T15:28:44.046Z,51.19
2018-11-06T15:31:12.578Z,51.38
2018-11-06T15:33:41.127Z,51.43
2018-11-06T15:36:09.614Z,51.82
2018-11-06T15:38:38.448Z,51.22
2018-11-06T15:41:07.034Z,51.86
2018-11-06T15:43:35.495Z,52.50
2018-11-06T15:46:04.182Z,51.98
2018-11-06T15:48:32.808Z,53.03
2018-11-06T15:51:01.236Z,53.07
2018-11-06T15:53:29.804Z,54.18
2018-11-06T15:55:58.612Z,54.33
2018-11-06T15:58:27.150Z,54.79
2018-11-06T16:00:55.683Z,54.91
2018-11-06T16:03:24.208Z,55.36
2018-11-06T16:05:52.755Z,56.04
2018-11-06T16:08:21.426Z,56.28
2018-11-06T16:10:49.836Z,56.49
2018-11-06T16:13:18.367Z,56.92
2018-11-06T16:18:39.515Z,57.55
2018-11-06T16:21:08.115Z,57.46
2018-11-06T16:23:36.626Z,57.70
2018-11-06T16:26:05.238Z,57.71
2018-11-06T16:28:33.755Z,58.71
2018-11-06T16:31:02.380Z,59.11
2018-11-06T16:33:30.915Z,59.43
2018-11-06T16:35:59.416Z,59.83
2018-11-06T16:38:27.918Z,60.49
2018-11-06T16:40:56.454Z,61.68
2018-11-06T16:43:24.966Z,61.29
2018-11-06T16:45:53.517Z,61.04
2018-11-06T16:48:22.059Z,60.65
2018-11-06T16:50:50.563Z,60.99
2018-11-06T16:53:19.079Z,62.30
2018-11-06T16:55:47.587Z,61.86
2018-11-06T16:58:16.372Z,61.46
2018-11-06T17:00:45.016Z,61.31
2018-11-06T17:03:13.446Z,61.42
2018-11-06T17:05:41.953Z,61.88
2018-11-06T17:08:10.480Z,61.79
2018-11-06T17:10:38.991Z,61.63
2018-11-06T17:13:07.534Z,61.65
2018-11-06T17:15:36.054Z,62.41
2018-11-06T17:18:04.588Z,63.07
2018-11-06T17:20:33.091Z,63.00
2018-11-06T17:23:01.599Z,63.02
2018-11-06T17:25:30.137Z,63.40
2018-11-06T17:27:58.612Z,63.14
2018-11-06T17:30:27.098Z,62.98
2018-11-06T17:32:55.648Z,63.31
2018-11-06T17:35:24.179Z,63.95
2018-11-06T17:37:52.695Z,65.08
2018-11-06T17:40:21.747Z,64.83
2018-11-06T17:42:56.786Z,64.12
2018-11-06T17:45:25.421Z,64.10
2018-11-06T17:47:53.909Z,64.36
2018-11-06T17:50:22.647Z,64.33
2018-11-06T17:52:51.163Z,64.29
2018-11-06T17:55:20.764Z,64.55
2018-11-06T17:57:49.058Z,64.73
2018-11-06T18:00:19.886Z,65.05
2018-11-06T18:02:48.574Z,64.99
2018-11-06T18:05:18.263Z,64.53
2018-11-06T18:07:46.759Z,64.90
2018-11-06T18:10:16.686Z,65.08
2018-11-06T18:12:45.508Z,65.87
2018-11-06T18:15:14.018Z,65.64
2018-11-06T18:17:42.860Z,65.80
2018-11-06T18:20:12.790Z,65.82
2018-11-06T18:22:42.271Z,65.34
2018-11-06T18:25:11.852Z,65.82
2018-11-06T18:27:40.455Z,66.74
2018-11-06T18:30:13.020Z,66.05
2018-11-06T18:32:41.656Z,66.53
2018-11-06T18:35:12.004Z,66.51
2018-11-06T18:37:40.595Z,66.79
2018-11-06T18:40:11.699Z,67.01
2018-11-06T18:42:40.317Z,66.91
2018-11-06T18:45:10.558Z,68.28
2018-11-06T18:47:39.097Z,68.18
2018-11-06T18:50:09.499Z,67.18
2018-11-06T18:52:38.249Z,67.51
2018-11-06T18:55:07.085Z,67.88
2018-11-06T18:57:35.950Z,67.42
2018-11-06T19:00:04.991Z,67.61
2018-11-06T19:02:33.827Z,67.42
2018-11-06T19:05:02.799Z,68.33
2018-11-06T19:07:31.283Z,68.36
2018-11-06T19:09:59.790Z,68.56
2018-11-06T19:12:28.454Z,69.03
2018-11-06T19:14:56.950Z,69.01
2018-11-06T19:17:25.460Z,68.81
2018-11-06T19:19:54.033Z,69.31
2018-11-06T19:22:22.539Z,69.58
2018-11-06T19:24:51.085Z,69.08
2018-11-06T19:27:20.131Z,69.53
2018-11-06T19:29:48.618Z,69.62
2018-11-06T19:32:17.104Z,68.96
2018-11-06T19:34:45.772Z,68.88
2018-11-06T19:37:14.273Z,68.64
2018-11-06T19:39:42.772Z,69.17
2018-11-06T19:42:11.274Z,69.30
2018-11-06T19:44:39.781Z,69.48
2018-11-06T19:47:08.333Z,69.55
2018-11-06T19:49:36.920Z,68.81
2018-11-06T19:52:05.543Z,69.82
2018-11-06T19:54:34.051Z,70.01
2018-11-06T19:57:02.758Z,69.87
2018-11-06T19:59:31.783Z,71.34
2018-11-06T20:02:01.039Z,71.01
2018-11-06T20:04:30.056Z,70.71
2018-11-06T20:06:58.727Z,71.16
2018-11-06T20:09:27.900Z,71.04
2018-11-06T20:14:49.096Z,70.65
2018-11-06T20:17:17.928Z,70.60
2018-11-06T20:19:46.678Z,70.46
2018-11-06T20:22:15.662Z,70.89
2018-11-06T20:24:44.320Z,71.04
2018-11-06T20:27:13.013Z,71.07
2018-11-06T20:29:41.681Z,71.23
2018-11-06T20:32:26.766Z,70.76
2018-11-06T20:34:55.635Z,71.07
2018-11-06T20:37:24.198Z,71.91
2018-11-06T20:39:52.655Z,71.99
2018-11-06T20:42:21.188Z,71.70
2018-11-06T20:44:49.669Z,71.32
2018-11-06T20:47:18.159Z,71.40
2018-11-06T20:49:46.874Z,71.56
2018-11-06T20:52:15.499Z,71.80
2018-11-06T20:54:43.991Z,71.55
2018-11-06T20:57:12.522Z,71.60
2018-11-06T20:59:41.022Z,71.97
2018-11-06T21:02:10.442Z,71.86
2018-11-06T21:04:38.950Z,71.68
2018-11-06T21:07:07.491Z,71.68
2018-11-06T21:09:36.034Z,71.40
2018-11-06T21:12:04.554Z,71.62
2018-11-06T21:14:33.054Z,71.83
2018-11-06T21:17:01.652Z,72.40
2018-11-06T21:19:30.203Z,72.52
2018-11-06T21:21:58.739Z,72.11
2018-11-06T21:24:27.244Z,71.91
2018-11-06T21:26:55.903Z,72.03
2018-11-06T21:29:24.301Z,72.47
2018-11-06T21:31:52.810Z,72.49
2018-11-06T21:34:21.343Z,72.58
2018-11-06T21:36:49.822Z,72.83
2018-11-06T21:39:18.390Z,72.83
2018-11-06T21:41:46.919Z,72.98
2018-11-06T21:44:15.422Z,73.08
2018-11-06T21:46:43.943Z,73.43
2018-11-06T21:49:12.539Z,73.25
2018-11-06T21:51:41.064Z,73.05
2018-11-06T21:54:09.586Z,73.15
2018-11-06T21:56:38.083Z,73.41
2018-11-06T21:59:06.604Z,73.65
2018-11-06T22:01:35.130Z,73.66
2018-11-06T22:04:05.411Z,72.91
2018-11-06T22:06:33.915Z,73.11
2018-11-06T22:09:04.170Z,72.79
2018-11-06T22:11:32.713Z,72.66
2018-11-06T22:14:03.213Z,72.97
2018-11-06T22:16:32.007Z,73.01
2018-11-06T22:19:00.578Z,72.97
2018-11-06T22:21:29.077Z,72.77
2018-11-06T22:23:57.597Z,73.12
2018-11-06T22:26:26.087Z,72.98
2018-11-06T22:28:54.658Z,73.43
2018-11-06T22:31:23.180Z,73.01
2018-11-06T22:33:51.726Z,72.86
2018-11-06T22:36:20.228Z,73.12
2018-11-06T22:38:49.286Z,73.81
2018-11-06T22:41:17.855Z,73.73
2018-11-06T22:43:46.472Z,73.67
2018-11-06T22:46:14.994Z,73.53
2018-11-06T22:48:43.496Z,73.96
2018-11-06T22:51:12.007Z,74.34
2018-11-06T22:53:40.541Z,74.32
2018-11-06T22:56:09.061Z,74.54
2018-11-06T22:58:37.774Z,74.22
2018-11-06T23:01:11.624Z,74.69
2018-11-06T23:03:40.126Z,75.12
2018-11-06T23:06:08.810Z,74.81
2018-11-06T23:08:37.142Z,74.82
2018-11-06T23:11:06.166Z,75.43
2018-11-06T23:13:34.682Z,75.19
2018-11-06T23:16:03.237Z,75.18
2018-11-06T23:18:31.747Z,75.32
2018-11-06T23:21:00.260Z,74.69
2018-11-06T23:23:28.963Z,75.31
2018-11-06T23:25:57.482Z,75.01
2018-11-06T23:28:26.434Z,75.13
2018-11-06T23:30:55.037Z,75.02
2018-11-06T23:33:23.564Z,74.34
2018-11-06T23:35:52.427Z,74.89
2018-11-06T23:38:20.846Z,74.85
2018-11-06T23:40:49.383Z,75.41
2018-11-06T23:43:17.882Z,75.74
2018-11-06T23:45:46.391Z,75.86
2018-11-06T23:51:07.411Z,75.57
2018-11-06T23:53:35.923Z,75.67
2018-11-06T23:56:04.559Z,75.53
2018-11-06T23:58:33.075Z,75.47
